Time;durP1;ratioP1;P1;durP2;ratioP2;P2;SDS_P1;SDS_P2;PMS_P1;PMS_P2;Temp;Humidity;BMP_temperature;BMP_pressure;BME280_temperature;BME280_humidity;BME280_pressure;Samples;Min_cycle;Max_cycle;Signal;HPM_P1;HPM_P2
2021/06/18 00:00:22;;;;;;;13.43;12.23;;;;;;;21.18;66.56;100859.25;4998354;28;20099;-78
2021/06/18 00:02:49;;;;;;;12.98;11.80;;;;;;;21.08;67.59;100856.25;5043987;28;20041;-78
2021/06/18 00:05:17;;;;;;;13.13;11.93;;;;;;;20.97;67.54;100851.56;5031606;28;20459;-79
2021/06/18 00:07:45;;;;;;;12.70;11.40;;;;;;;20.95;67.65;100844.56;5024147;28;20097;-77
2021/06/18 00:10:14;;;;;;;12.48;11.35;;;;;;;20.86;67.27;100853.16;5035444;28;20509;-80
2021/06/18 00:12:42;;;;;;;12.10;11.00;;;;;;;20.80;67.57;100841.81;5015767;28;20045;-79
2021/06/18 00:15:10;;;;;;;12.30;11.20;;;;;;;20.79;68.18;100842.78;4999914;28;20083;-77
2021/06/18 00:17:37;;;;;;;12.63;11.32;;;;;;;20.70;68.32;100837.97;5001713;28;20044;-79
2021/06/18 00:20:05;;;;;;;13.85;12.50;;;;;;;20.73;68.12;100837.78;5016060;28;20044;-78
2021/06/18 00:22:32;;;;;;;13.00;11.80;;;;;;;20.69;67.72;100830.88;5013568;28;20045;-78
2021/06/18 00:24:58;;;;;;;12.32;11.23;;;;;;;20.61;68.37;100830.47;5032941;28;20037;-78
2021/06/18 00:27:25;;;;;;;12.95;11.70;;;;;;;20.65;68.67;100834.69;5032343;28;20045;-76
2021/06/18 00:29:52;;;;;;;12.45;11.35;;;;;;;20.61;68.75;100841.19;5032847;28;20047;-78
2021/06/18 00:32:19;;;;;;;12.90;11.80;;;;;;;20.61;66.52;100830.47;5018238;28;20044;-80
2021/06/18 00:34:46;;;;;;;14.98;11.73;;;;;;;20.67;65.80;100839.94;5052234;28;20120;-77
2021/06/18 00:37:13;;;;;;;12.32;11.23;;;;;;;20.56;66.38;100840.59;5035097;28;20069;-76
2021/06/18 00:39:42;;;;;;;12.90;11.70;;;;;;;20.49;66.29;100831.19;5038179;28;20075;-76
2021/06/18 00:42:09;;;;;;;11.85;10.65;;;;;;;20.35;67.65;100836.47;5037758;28;20105;-77
2021/06/18 00:44:36;;;;;;;12.20;11.00;;;;;;;20.31;68.07;100833.09;5038464;28;20041;-76
2021/06/18 00:47:03;;;;;;;12.18;11.07;;;;;;;20.32;68.29;100829.44;5014846;28;20123;-79
2021/06/18 00:49:30;;;;;;;13.93;12.63;;;;;;;20.41;67.99;100825.34;5001102;28;20051;-81
2021/06/18 00:51:57;;;;;;;13.25;12.05;;;;;;;20.39;68.42;100825.44;5039078;28;20083;-78
2021/06/18 00:54:30;;;;;;;13.95;12.57;;;;;;;20.41;68.66;100817.31;5020531;28;20045;-76
2021/06/18 00:56:58;;;;;;;13.13;11.50;;;;;;;20.29;69.47;100818.03;5024507;28;20044;-78
2021/06/18 00:59:25;;;;;;;12.30;11.20;;;;;;;20.23;69.73;100816.56;5019314;28;20436;-78
2021/06/18 01:01:52;;;;;;;13.02;11.65;;;;;;;20.09;70.52;100813.81;5030904;28;20106;-78
2021/06/18 01:04:21;;;;;;;12.25;11.15;;;;;;;20.05;70.31;100818.50;5017672;28;20107;-78
2021/06/18 01:06:53;;;;;;;12.88;11.57;;;;;;;19.98;70.14;100817.13;5031888;28;20041;-78
2021/06/18 01:09:20;;;;;;;11.77;10.70;;;;;;;19.95;70.15;100820.84;5039984;28;20099;-77
2021/06/18 01:11:53;;;;;;;12.07;11.05;;;;;;;19.92;70.42;100817.44;5018950;28;20064;-78
2021/06/18 01:14:36;;;;;;;11.88;10.77;;;;;;;19.88;70.29;100819.47;5021219;28;20090;-78
2021/06/18 01:17:11;;;;;;;13.00;11.80;;;;;;;19.86;70.84;100815.16;5032764;28;20091;-80
2021/06/18 01:20:01;;;;;;;13.43;12.20;;;;;;;19.80;70.47;100824.38;5040065;28;20033;-78
2021/06/18 01:22:28;;;;;;;12.88;11.57;;;;;;;19.79;70.80;100822.66;5045369;28;20091;-78
2021/06/18 01:25:03;;;;;;;13.40;12.07;;;;;;;19.78;70.88;100817.38;5003226;28;20501;-80
2021/06/18 01:27:33;;;;;;;13.90;12.48;;;;;;;19.72;71.24;100821.28;5031628;28;20033;-79
2021/06/18 01:30:12;;;;;;;14.20;12.82;;;;;;;19.73;71.33;100822.13;5040282;28;20048;-78
2021/06/18 01:32:58;;;;;;;13.90;12.50;;;;;;;19.62;71.93;100828.09;5030205;28;20064;-78
2021/06/18 01:35:30;;;;;;;13.98;12.70;;;;;;;19.56;72.64;100821.25;5023680;28;20044;-82
2021/06/18 01:37:58;;;;;;;14.45;12.98;;;;;;;19.64;71.99;100826.19;5032061;28;20063;-79
2021/06/18 01:40:28;;;;;;;13.90;12.70;;;;;;;19.56;73.17;100813.22;5014697;28;20075;-77
2021/06/18 01:42:57;;;;;;;14.15;12.73;;;;;;;19.50;73.18;100813.50;5049583;28;20044;-77
2021/06/18 01:45:26;;;;;;;16.38;14.23;;;;;;;19.58;72.87;100813.97;5055272;28;20041;-80
2021/06/18 01:47:54;;;;;;;15.43;14.05;;;;;;;19.42;74.34;100810.38;5033368;28;20041;-77
2021/06/18 01:50:22;;;;;;;14.40;13.02;;;;;;;19.44;73.55;100815.69;5029192;28;20029;-77
2021/06/18 01:52:51;;;;;;;14.70;13.40;;;;;;;19.38;73.45;100806.16;5021614;28;20041;-77
2021/06/18 01:55:21;;;;;;;14.85;13.45;;;;;;;19.37;73.27;100810.66;5048583;28;20098;-81
2021/06/18 01:57:48;;;;;;;14.52;13.23;;;;;;;19.32;73.08;100807.34;5003100;28;20407;-79
2021/06/18 02:00:15;;;;;;;13.82;12.63;;;;;;;19.27;73.95;100811.25;5038901;28;20448;-78
2021/06/18 02:02:43;;;;;;;14.23;12.93;;;;;;;19.20;74.18;100809.84;5037304;28;20556;-80
2021/06/18 02:05:10;;;;;;;14.48;13.07;;;;;;;19.13;74.66;100815.50;5022842;28;20236;-77
2021/06/18 02:07:38;;;;;;;15.93;13.50;;;;;;;19.20;74.79;100796.44;5013397;28;20394;-78
2021/06/18 02:10:07;;;;;;;15.32;13.90;;;;;;;19.13;75.29;100807.47;5021369;28;20040;-76
2021/06/18 02:12:35;;;;;;;15.98;14.55;;;;;;;19.12;75.49;100807.56;5009310;28;20049;-77
2021/06/18 02:15:07;;;;;;;15.13;13.70;;;;;;;19.05;75.48;100811.50;5039159;28;20041;-78
2021/06/18 02:17:34;;;;;;;15.65;14.15;;;;;;;18.99;75.09;100812.69;5052696;28;20025;-77
2021/06/18 02:20:05;;;;;;;14.75;13.43;;;;;;;19.01;74.94;100816.19;5016570;28;20041;-77
2021/06/18 02:22:34;;;;;;;15.48;14.00;;;;;;;18.95;75.06;100821.00;5004941;28;20045;-78
2021/06/18 02:25:02;;;;;;;14.63;13.32;;;;;;;18.88;75.54;100825.78;5032214;28;20094;-78
2021/06/18 02:27:29;;;;;;;14.77;13.35;;;;;;;18.82;76.28;100824.28;5015737;28;20045;-78
2021/06/18 02:29:59;;;;;;;13.90;12.60;;;;;;;18.85;76.74;100820.63;5034785;28;20041;-81
2021/06/18 02:32:26;;;;;;;15.40;13.77;;;;;;;18.78;76.78;100822.72;5034264;28;20509;-78
2021/06/18 02:34:53;;;;;;;14.00;12.80;;;;;;;18.74;77.19;100817.59;5029286;28;20045;-77
2021/06/18 02:37:20;;;;;;;14.52;13.13;;;;;;;18.70;77.30;100818.72;5028170;28;20123;-78
2021/06/18 02:39:48;;;;;;;17.17;14.52;;;;;;;18.74;76.75;100812.25;5012587;28;20095;-76
2021/06/18 02:42:14;;;;;;;20.70;14.48;;;;;;;18.72;76.34;100827.53;5014918;28;20434;-78
2021/06/18 02:44:41;;;;;;;18.13;14.15;;;;;;;18.68;76.94;100829.50;5029554;28;20468;-81
2021/06/18 02:47:15;;;;;;;28.02;16.25;;;;;;;18.63;76.52;100819.94;5019205;28;20048;-77
2021/06/18 02:49:49;;;;;;;21.67;15.85;;;;;;;18.65;77.26;100823.41;5052879;28;20033;-81
2021/06/18 02:52:20;;;;;;;21.88;14.90;;;;;;;18.54;77.50;100826.63;5034493;28;20080;-81
2021/06/18 02:55:03;;;;;;;19.38;13.65;;;;;;;18.49;77.28;100832.19;5018931;28;20130;-78
2021/06/18 02:57:35;;;;;;;15.82;14.13;;;;;;;18.45;77.94;100832.44;5003419;28;20567;-80
2021/06/18 03:00:10;;;;;;;15.48;13.77;;;;;;;18.44;77.61;100831.59;5019634;28;20045;-80
2021/06/18 03:02:47;;;;;;;18.35;14.95;;;;;;;18.43;77.67;100824.50;5019302;28;20102;-80
2021/06/18 03:05:15;;;;;;;17.88;14.93;;;;;;;18.45;77.62;100830.63;5038869;28;20095;-80
2021/06/18 03:07:55;;;;;;;19.90;14.88;;;;;;;18.51;77.53;100835.69;5020442;28;20045;-79
2021/06/18 03:10:25;;;;;;;16.23;14.63;;;;;;;18.49;76.48;100829.53;5034615;28;20094;-80
2021/06/18 03:13:02;;;;;;;15.70;14.20;;;;;;;18.34;77.05;100832.13;5064595;28;20243;-79
2021/06/18 03:15:33;;;;;;;14.82;13.40;;;;;;;18.28;77.63;100836.84;5021535;28;20049;-78
2021/06/18 03:18:01;;;;;;;19.80;15.43;;;;;;;18.35;77.20;100831.19;5032081;28;20040;-80
2021/06/18 03:20:27;;;;;;;15.82;14.32;;;;;;;18.32;78.06;100832.19;5049970;28;20497;-78
2021/06/18 03:22:59;;;;;;;17.13;15.25;;;;;;;18.32;77.76;100842.03;5023986;28;20044;-79
2021/06/18 03:25:28;;;;;;;14.80;13.45;;;;;;;18.21;78.73;100838.06;5046277;28;20908;-78
2021/06/18 03:27:55;;;;;;;14.30;12.85;;;;;;;18.19;78.94;100831.94;5026820;28;20162;-80
2021/06/18 03:30:22;;;;;;;15.43;14.02;;;;;;;18.22;79.30;100830.91;5007535;28;20044;-77
2021/06/18 03:32:49;;;;;;;16.58;14.93;;;;;;;18.21;80.10;100826.50;5017998;28;20131;-77
2021/06/18 03:35:16;;;;;;;16.45;14.75;;;;;;;18.25;80.15;100831.66;5017486;28;20045;-76
2021/06/18 03:37:43;;;;;;;15.35;13.95;;;;;;;18.28;80.09;100836.84;5033324;28;20053;-78
2021/06/18 03:40:10;;;;;;;15.23;13.82;;;;;;;18.25;80.52;100825.44;5016149;28;20041;-76
2021/06/18 03:42:38;;;;;;;16.42;14.93;;;;;;;18.28;80.50;100844.00;5030626;28;20082;-77
2021/06/18 03:45:07;;;;;;;17.55;15.18;;;;;;;18.30;81.18;100844.78;5026727;28;20091;-80
2021/06/18 03:47:34;;;;;;;15.80;14.30;;;;;;;18.35;80.52;100844.56;5019657;28;20051;-77
2021/06/18 03:50:01;;;;;;;16.27;14.57;;;;;;;18.36;80.97;100849.81;5033704;28;20091;-77
2021/06/18 03:52:28;;;;;;;15.55;14.05;;;;;;;18.34;80.34;100849.03;5017319;28;20700;-78
2021/06/18 03:54:56;;;;;;;16.50;14.98;;;;;;;18.36;80.11;100843.63;5016894;28;20060;-77
2021/06/18 03:57:23;;;;;;;16.10;14.50;;;;;;;18.39;79.43;100841.63;5034823;28;20068;-76
2021/06/18 03:59:52;;;;;;;14.95;13.65;;;;;;;18.37;79.36;100831.97;5017251;28;20090;-78
2021/06/18 04:02:20;;;;;;;15.60;14.05;;;;;;;18.36;80.09;100843.63;5002299;28;20050;-81
2021/06/18 04:04:47;;;;;;;15.18;13.80;;;;;;;18.40;80.39;100845.19;5018244;28;20036;-76
2021/06/18 04:07:14;;;;;;;15.20;13.75;;;;;;;18.43;80.33;100847.72;5024898;28;20040;-77
2021/06/18 04:09:41;;;;;;;16.88;15.18;;;;;;;18.48;79.44;100849.19;5029214;28;20040;-79
2021/06/18 04:12:09;;;;;;;17.65;14.48;;;;;;;18.51;80.16;100843.72;5021934;28;20042;-81
2021/06/18 04:14:36;;;;;;;15.20;13.40;;;;;;;18.59;79.22;100851.34;5019255;28;20037;-79
2021/06/18 04:17:04;;;;;;;15.55;14.05;;;;;;;18.67;79.52;100838.50;5010319;28;20111;-78
2021/06/18 04:19:32;;;;;;;15.50;14.00;;;;;;;18.66;80.09;100842.09;5031769;28;20588;-79
2021/06/18 04:22:01;;;;;;;17.73;14.80;;;;;;;18.64;80.31;100838.59;5037269;28;20087;-78
2021/06/18 04:24:28;;;;;;;16.00;14.40;;;;;;;18.72;79.72;100843.59;5030104;28;20090;-79
2021/06/18 04:26:55;;;;;;;152.48;28.05;;;;;;;18.80;79.89;100849.41;5040456;28;20147;-78
2021/06/18 04:29:22;;;;;;;125.75;24.15;;;;;;;18.81;78.88;100853.81;5026638;28;20087;-78
2021/06/18 04:31:49;;;;;;;60.08;19.75;;;;;;;18.90;78.41;100853.34;5006441;28;20078;-80
2021/06/18 04:34:15;;;;;;;29.33;15.25;;;;;;;18.93;78.10;100850.53;5016712;28;20131;-79
2021/06/18 04:36:42;;;;;;;32.80;14.63;;;;;;;18.98;79.23;100847.59;5025103;28;20102;-79
2021/06/18 04:39:09;;;;;;;18.58;13.30;;;;;;;19.09;77.99;100853.28;5049717;28;20033;-78
2021/06/18 04:41:35;;;;;;;14.82;13.23;;;;;;;19.15;77.94;100862.78;5015479;28;20053;-80
2021/06/18 04:44:03;;;;;;;14.57;13.18;;;;;;;19.25;76.84;100864.00;5001013;28;20045;-78
2021/06/18 04:46:30;;;;;;;14.73;13.05;;;;;;;19.36;77.14;100856.28;5022561;28;20066;-77
2021/06/18 04:48:57;;;;;;;14.07;12.85;;;;;;;19.37;77.55;100855.34;5032397;28;20041;-78
2021/06/18 04:51:24;;;;;;;14.85;13.45;;;;;;;19.46;76.42;100852.16;5039543;28;20033;-77
2021/06/18 04:53:54;;;;;;;13.60;12.30;;;;;;;19.49;77.69;100860.00;5032050;28;20182;-78
2021/06/18 04:56:22;;;;;;;13.55;12.35;;;;;;;19.53;77.82;100856.25;4999265;28;20091;-77
2021/06/18 04:58:48;;;;;;;14.18;12.88;;;;;;;19.61;77.40;100859.41;5012772;28;20037;-78
2021/06/18 05:01:15;;;;;;;14.55;13.13;;;;;;;19.69;77.00;100861.66;5011907;28;20051;-80
2021/06/18 05:03:42;;;;;;;16.45;13.52;;;;;;;19.79;75.94;100870.06;5011442;28;20405;-78
2021/06/18 05:06:08;;;;;;;14.85;13.40;;;;;;;19.87;76.18;100863.31;5012964;28;20498;-79
2021/06/18 05:08:35;;;;;;;13.70;12.35;;;;;;;19.93;76.36;100860.28;5021273;28;20041;-80
2021/06/18 05:11:02;;;;;;;14.45;13.05;;;;;;;20.02;75.61;100861.59;5012495;28;20490;-80
2021/06/18 05:13:29;;;;;;;14.85;13.38;;;;;;;20.14;76.01;100860.03;5033591;28;20462;-79
2021/06/18 05:15:55;;;;;;;13.52;12.20;;;;;;;20.44;74.27;100855.63;5015219;28;20037;-80
2021/06/18 05:18:32;;;;;;;270.85;41.45;;;;;;;21.27;70.74;100854.22;5002325;28;20036;-80
2021/06/18 05:20:59;;;;;;;240.98;38.28;;;;;;;22.08;67.73;100848.19;5008807;28;20445;-79
2021/06/18 05:23:25;;;;;;;89.80;22.48;;;;;;;22.48;65.13;100852.69;5031261;28;20452;-80
2021/06/18 05:25:53;;;;;;;78.43;20.42;;;;;;;22.84;64.80;100853.84;5022945;28;20033;-81
2021/06/18 05:28:20;;;;;;;40.08;15.10;;;;;;;22.85;63.95;100854.72;4998900;28;20069;-81
2021/06/18 05:30:47;;;;;;;21.83;12.43;;;;;;;22.67;64.03;100854.13;4999230;28;20044;-81
2021/06/18 05:33:14;;;;;;;12.32;10.70;;;;;;;22.44;64.41;100858.34;5013056;28;20136;-80
2021/06/18 05:35:44;;;;;;;13.10;10.85;;;;;;;22.28;66.11;100860.34;5017248;28;20045;-81
2021/06/18 05:38:11;;;;;;;12.25;11.15;;;;;;;22.16;65.67;100868.25;5027547;28;20045;-79
2021/06/18 05:40:42;;;;;;;11.93;10.82;;;;;;;22.25;66.56;100871.31;5018419;28;20934;-79
2021/06/18 05:43:12;;;;;;;14.30;11.35;;;;;;;22.86;65.11;100862.69;5015565;28;20114;-80
2021/06/18 05:45:39;;;;;;;31.80;11.98;;;;;;;24.54;59.69;100860.53;5015341;28;20599;-81
2021/06/18 05:48:06;;;;;;;42.90;12.55;;;;;;;27.10;51.17;100874.13;4999286;28;20071;-80
2021/06/18 05:50:33;;;;;;;11.68;8.93;;;;;;;29.28;46.22;100869.69;4998438;28;20052;-80
2021/06/18 05:53:00;;;;;;;10.45;9.45;;;;;;;31.36;41.05;100875.13;5017875;28;20118;-81
2021/06/18 05:55:27;;;;;;;9.73;8.38;;;;;;;32.47;38.48;100875.97;4998687;28;20060;-80
2021/06/18 05:57:53;;;;;;;9.20;8.30;;;;;;;33.03;37.65;100870.69;5032306;28;20049;-81
2021/06/18 06:00:21;;;;;;;9.73;8.18;;;;;;;34.30;34.35;100872.56;4997990;28;20049;-81
2021/06/18 06:03:06;;;;;;;8.20;7.50;;;;;;;34.54;33.68;100875.19;5018751;28;20049;-81
2021/06/18 06:05:32;;;;;;;8.25;7.47;;;;;;;34.15;35.48;100859.63;5017600;28;20076;-82
2021/06/18 06:07:59;;;;;;;8.40;7.60;;;;;;;33.64;35.91;100868.41;5019216;28;20037;-82
2021/06/18 06:10:41;;;;;;;8.02;7.35;;;;;;;33.10;37.54;100868.13;5044129;28;20045;-80
2021/06/18 06:13:08;;;;;;;8.27;7.47;;;;;;;32.41;37.12;100864.84;5016533;28;20445;-81
2021/06/18 06:15:34;;;;;;;7.80;7.10;;;;;;;31.91;37.83;100869.28;5015553;28;20103;-82
2021/06/18 06:18:02;;;;;;;8.38;7.57;;;;;;;31.50;39.96;100864.59;5018662;28;20098;-82
2021/06/18 06:20:28;;;;;;;8.23;7.43;;;;;;;30.65;38.42;100860.66;5003119;28;20116;-81
2021/06/18 06:22:55;;;;;;;8.50;7.63;;;;;;;30.53;40.66;100863.63;5047294;28;20063;-82
2021/06/18 06:25:22;;;;;;;9.02;7.93;;;;;;;30.49;40.65;100866.81;5014030;28;20548;-82
2021/06/18 06:27:48;;;;;;;8.63;7.88;;;;;;;30.20;40.11;100867.03;5018692;28;20059;-83
2021/06/18 06:30:15;;;;;;;8.40;7.70;;;;;;;30.37;40.68;100862.63;5035832;28;20540;-84
2021/06/18 06:32:43;;;;;;;12.13;8.30;;;;;;;30.22;40.32;100854.97;5020207;28;20068;-81
2021/06/18 06:35:11;;;;;;;8.15;7.45;;;;;;;30.33;40.24;100862.06;5029835;28;20037;-83
2021/06/18 06:37:37;;;;;;;7.95;7.25;;;;;;;30.41;40.16;100858.56;5026073;28;20648;-81
2021/06/18 06:40:06;;;;;;;8.07;7.28;;;;;;;30.38;39.63;100859.72;5111644;22;20018;-82
2021/06/18 06:42:32;;;;;;;7.57;6.82;;;;;;;30.33;36.98;100855.75;5090221;28;20457;-82
2021/06/18 06:44:59;;;;;;;7.15;6.45;;;;;;;30.39;38.51;100856.00;5092892;28;20069;-80
2021/06/18 06:47:25;;;;;;;7.68;6.78;;;;;;;30.24;37.96;100854.81;5104753;28;20609;-82
2021/06/18 06:49:52;;;;;;;7.32;6.72;;;;;;;30.40;39.78;100857.69;5088060;28;20047;-82
2021/06/18 06:52:19;;;;;;;61.88;11.60;;;;;;;30.49;38.60;100856.75;5088056;28;20403;-81
2021/06/18 06:54:46;;;;;;;7.68;6.75;;;;;;;30.64;38.91;100868.00;5072573;28;20051;-81
2021/06/18 06:57:15;;;;;;;7.20;6.50;;;;;;;30.37;37.19;100863.47;5090204;28;20044;-81
2021/06/18 06:59:42;;;;;;;7.38;6.75;;;;;;;30.41;37.66;100864.88;5098518;28;20031;-81
2021/06/18 07:02:09;;;;;;;8.50;6.45;;;;;;;30.51;38.36;100864.78;5063372;28;20036;-83
2021/06/18 07:04:36;;;;;;;7.32;6.63;;;;;;;30.58;36.49;100848.66;5089873;28;20040;-82
2021/06/18 07:07:03;;;;;;;7.63;6.85;;;;;;;30.91;38.19;100852.56;5087391;28;20455;-82
2021/06/18 07:09:29;;;;;;;7.32;6.63;;;;;;;31.07;37.70;100859.00;5055492;28;20113;-81
2021/06/18 07:11:56;;;;;;;7.63;6.90;;;;;;;31.25;37.44;100856.25;5084354;28;20076;-81
2021/06/18 07:14:23;;;;;;;7.93;7.18;;;;;;;31.09;36.75;100856.97;5085121;28;20040;-84
2021/06/18 07:16:49;;;;;;;9.35;6.70;;;;;;;31.24;37.34;100851.81;5102926;28;20081;-80
2021/06/18 07:19:16;;;;;;;7.10;6.50;;;;;;;31.45;36.89;100854.19;5077204;28;20085;-81
2021/06/18 07:21:42;;;;;;;8.02;7.28;;;;;;;31.36;37.23;100850.53;5081944;28;20039;-81
2021/06/18 07:24:09;;;;;;;7.90;7.18;;;;;;;31.61;38.28;100853.38;5094539;28;20477;-83
2021/06/18 07:26:36;;;;;;;8.75;7.18;;;;;;;31.75;37.25;100858.25;5092918;28;20089;-81
2021/06/18 07:29:02;;;;;;;7.65;7.00;;;;;;;31.47;36.22;100854.00;5089609;28;20405;-80
2021/06/18 07:31:30;;;;;;;7.15;6.55;;;;;;;31.25;36.17;100853.53;5099388;28;20047;-82
2021/06/18 07:33:57;;;;;;;7.13;6.53;;;;;;;31.60;36.89;100854.41;5095677;28;20062;-82
2021/06/18 07:36:23;;;;;;;7.60;7.00;;;;;;;31.83;36.29;100850.09;5092151;28;20040;-84
2021/06/18 07:38:50;;;;;;;8.57;7.90;;;;;;;31.76;35.58;100842.69;5094965;28;20051;-81
2021/06/18 07:41:17;;;;;;;6.97;6.47;;;;;;;32.06;36.38;100844.06;5080948;28;20044;-80
2021/06/18 07:43:43;;;;;;;6.97;6.47;;;;;;;32.19;35.85;100847.16;5086331;28;20227;-81
2021/06/18 07:46:10;;;;;;;7.30;6.60;;;;;;;32.26;35.92;100847.34;5089863;28;20040;-81
2021/06/18 07:48:38;;;;;;;7.80;7.18;;;;;;;32.22;35.15;100846.81;5091887;28;20597;-81
2021/06/18 07:51:05;;;;;;;8.50;7.22;;;;;;;32.33;36.07;100843.78;5083619;28;20039;-81
2021/06/18 07:53:32;;;;;;;8.07;7.38;;;;;;;32.29;35.76;100839.66;5091765;28;20177;-81
2021/06/18 07:55:59;;;;;;;7.82;6.65;;;;;;;32.42;35.43;100833.72;5081759;28;20401;-83
2021/06/18 07:58:25;;;;;;;7.00;6.40;;;;;;;32.47;34.78;100834.09;5076844;28;20040;-81
2021/06/18 08:00:52;;;;;;;7.22;6.50;;;;;;;32.68;34.83;100828.09;5073480;28;20043;-83
2021/06/18 08:03:19;;;;;;;7.22;6.53;;;;;;;32.62;34.32;100824.16;5078746;28;20036;-82
2021/06/18 08:05:45;;;;;;;6.70;6.05;;;;;;;32.90;34.55;100815.66;5077928;28;20040;-81
2021/06/18 08:08:12;;;;;;;29.60;9.20;;;;;;;33.20;34.75;100825.00;5091600;28;20043;-82
2021/06/18 08:10:50;;;;;;;6.13;5.68;;;;;;;33.39;33.94;100821.06;5084607;28;20040;-82
2021/06/18 08:13:17;;;;;;;5.60;5.10;;;;;;;33.47;31.82;100821.91;5102125;28;20441;-82
2021/06/18 08:15:44;;;;;;;8.60;5.45;;;;;;;33.47;29.54;100827.38;5088994;28;20043;-80
2021/06/18 08:18:10;;;;;;;5.53;5.03;;;;;;;33.47;30.44;100826.53;5072752;28;22192;-82
2021/06/18 08:20:37;;;;;;;5.43;4.97;;;;;;;33.58;31.00;100820.66;5083712;28;20729;-81
2021/06/18 08:23:04;;;;;;;7.07;4.72;;;;;;;33.15;29.76;100822.78;5081626;28;20078;-80
2021/06/18 08:25:30;;;;;;;5.72;4.65;;;;;;;32.82;28.80;100821.94;5095564;28;20087;-82
2021/06/18 08:27:57;;;;;;;7.10;4.63;;;;;;;32.85;28.94;100818.03;5099592;28;20552;-81
2021/06/18 08:30:24;;;;;;;5.45;4.32;;;;;;;33.10;28.48;100818.88;5086198;28;20049;-81
2021/06/18 08:32:52;;;;;;;5.40;4.47;;;;;;;33.20;27.86;100819.53;5105270;28;20039;-80
2021/06/18 08:35:20;;;;;;;10.18;4.80;;;;;;;33.44;28.60;100816.75;5072077;28;20118;-84
2021/06/18 08:37:48;;;;;;;4.80;4.40;;;;;;;33.71;28.82;100811.84;5063828;28;20047;-81
2021/06/18 08:40:15;;;;;;;41.25;8.23;;;;;;;33.91;27.99;100810.41;5087292;28;20032;-83
2021/06/18 08:42:44;;;;;;;53.92;8.77;;;;;;;33.64;27.47;100816.34;5076266;28;20476;-82
2021/06/18 08:45:11;;;;;;;7.93;5.32;;;;;;;33.62;27.11;100797.31;5082654;28;20043;-83
2021/06/18 08:47:39;;;;;;;6.80;4.43;;;;;;;33.44;27.33;100811.28;5071324;28;20175;-82
2021/06/18 08:50:07;;;;;;;5.32;4.82;;;;;;;33.53;27.79;100815.69;5070594;28;20036;-82
2021/06/18 08:52:38;;;;;;;6.70;4.72;;;;;;;33.71;27.66;100804.47;5069790;28;20667;-81
2021/06/18 08:55:06;;;;;;;5.75;4.32;;;;;;;33.44;26.99;100800.31;5072982;28;20093;-84
2021/06/18 08:57:33;;;;;;;5.45;4.95;;;;;;;33.64;26.47;100798.03;5105997;28;20045;-81
2021/06/18 09:00:00;;;;;;;11.30;5.35;;;;;;;33.70;26.61;100800.03;5101770;28;20042;-82
2021/06/18 09:02:26;;;;;;;5.10;4.60;;;;;;;33.83;26.59;100811.28;5085445;28;20062;-83
2021/06/18 09:05:04;;;;;;;6.30;4.88;;;;;;;34.03;26.30;100802.63;5066957;28;20108;-83
2021/06/18 09:07:54;;;;;;;79.22;13.18;;;;;;;34.39;26.53;100801.06;5084710;28;20500;-85
2021/06/18 09:10:25;;;;;;;19.02;5.72;;;;;;;34.52;25.69;100794.09;5073724;28;20039;-85
2021/06/18 09:13:04;;;;;;;6.55;4.43;;;;;;;34.63;24.90;100801.88;5088130;28;20071;-84
2021/06/18 09:15:31;;;;;;;5.10;4.57;;;;;;;34.19;24.09;100791.56;5069720;28;20044;-85
2021/06/18 09:18:21;;;;;;;5.75;4.60;;;;;;;34.08;25.12;100795.59;5088384;28;20405;-84
2021/06/18 09:20:49;;;;;;;5.28;4.78;;;;;;;33.74;25.62;100793.19;5100725;28;20027;-84
2021/06/18 09:23:23;;;;;;;5.38;4.50;;;;;;;33.77;26.22;100787.31;5082887;28;20051;-85
2021/06/18 09:26:24;;;;;;;5.30;4.80;;;;;;;33.98;25.64;100791.38;5084011;28;20043;-85
2021/06/18 09:29:12;;;;;;;4.78;4.38;;;;;;;34.01;24.81;100791.84;5080766;28;20035;-85
2021/06/18 09:32:00;;;;;;;5.68;4.82;;;;;;;33.67;24.91;100791.31;5072267;28;20040;-85
2021/06/18 09:35:00;;;;;;;6.97;4.50;;;;;;;34.00;24.96;100787.41;5096832;28;20039;-83
2021/06/18 09:37:53;;;;;;;4.90;4.50;;;;;;;34.34;22.84;100786.16;5075335;28;20055;-85
2021/06/18 09:40:21;;;;;;;7.13;4.68;;;;;;;34.52;24.36;100788.59;5070794;28;20555;-84
2021/06/18 09:42:49;;;;;;;5.35;4.40;;;;;;;34.41;23.06;100779.78;5062237;28;20129;-84
2021/06/18 09:45:18;;;;;;;18.02;6.15;;;;;;;34.68;24.21;100769.25;5100287;28;20035;-85
2021/06/18 09:47:46;;;;;;;4.53;3.88;;;;;;;34.75;24.50;100775.72;5077837;28;20040;-83
2021/06/18 09:50:12;;;;;;;4.28;3.85;;;;;;;35.11;24.29;100773.13;5074616;28;20039;-83
2021/06/18 09:52:41;;;;;;;4.80;4.40;;;;;;;35.22;24.36;100772.66;5104056;28;20095;-84
2021/06/18 09:55:09;;;;;;;6.57;4.00;;;;;;;35.13;24.67;100776.53;5105569;28;20044;-82
2021/06/18 09:57:41;;;;;;;4.65;4.25;;;;;;;34.95;23.90;100770.56;5072361;28;20046;-85
2021/06/18 10:00:11;;;;;;;4.55;4.10;;;;;;;35.13;23.52;100767.44;5083333;28;20032;-84
2021/06/18 10:02:45;;;;;;;4.13;3.83;;;;;;;35.28;25.41;100764.72;5085497;27;20415;-84
2021/06/18 10:05:15;;;;;;;21.75;6.30;;;;;;;35.34;23.86;100773.06;5082523;28;20448;-84
2021/06/18 10:07:44;;;;;;;4.43;4.03;;;;;;;35.26;24.44;100765.75;5086356;28;20051;-84
2021/06/18 10:10:13;;;;;;;5.22;4.72;;;;;;;35.35;23.69;100765.66;5060614;28;20047;-84
2021/06/18 10:12:42;;;;;;;5.63;4.50;;;;;;;35.36;23.77;100767.34;5077726;28;20055;-83
2021/06/18 10:15:17;;;;;;;4.82;4.35;;;;;;;35.19;22.38;100762.06;5068402;28;20070;-84
2021/06/18 10:17:46;;;;;;;5.85;4.50;;;;;;;34.97;24.26;100755.59;5084242;28;20519;-84
2021/06/18 10:20:24;;;;;;;5.22;4.72;;;;;;;35.00;23.35;100759.03;5079382;28;20040;-85
2021/06/18 10:23:06;;;;;;;15.77;5.63;;;;;;;35.15;23.67;100766.25;5072635;28;20044;-85
2021/06/18 10:25:51;;;;;;;4.70;4.30;;;;;;;34.92;23.76;100740.75;5080973;28;20469;-83
2021/06/18 10:28:21;;;;;;;5.72;5.05;;;;;;;35.07;23.58;100755.34;5083658;28;20142;-85
2021/06/18 10:30:50;;;;;;;7.10;5.00;;;;;;;35.16;23.46;100767.94;5089760;28;20051;-84
2021/06/18 10:33:26;;;;;;;5.70;4.75;;;;;;;34.81;23.86;100777.72;5104450;28;20051;-85
2021/06/18 10:36:04;;;;;;;5.18;4.78;;;;;;;34.80;24.05;100754.03;5075688;28;20497;-84
2021/06/18 10:38:45;;;;;;;84.63;14.85;;;;;;;34.74;23.34;100753.94;5074255;28;20047;-84
2021/06/18 10:41:18;;;;;;;14.35;5.30;;;;;;;34.79;24.19;100748.72;5085014;28;20446;-84
2021/06/18 10:43:46;;;;;;;;;;;;;;;34.40;24.24;100747.91;5097250;28;20043;-84
2021/06/18 10:46:25;;;;;;;9.35;5.00;;;;;;;34.58;24.44;100742.09;5077681;28;19920;-83
2021/06/18 10:48:55;;;;;;;6.75;5.15;;;;;;;34.63;24.48;100745.09;5091388;28;20043;-85
2021/06/18 10:51:38;;;;;;;5.63;5.05;;;;;;;34.86;24.12;100745.06;5083114;28;20040;-85
2021/06/18 10:54:10;;;;;;;6.18;5.22;;;;;;;35.13;24.11;100743.59;5068591;28;20052;-85
2021/06/18 10:56:47;;;;;;;21.00;6.43;;;;;;;35.05;23.97;100745.56;5080568;28;20044;-82
2021/06/18 10:59:20;;;;;;;8.07;4.97;;;;;;;34.56;22.99;100738.69;5079338;28;20290;-85
2021/06/18 11:01:52;;;;;;;5.10;4.53;;;;;;;35.11;23.70;100725.59;5097733;28;20048;-84
2021/06/18 11:04:43;;;;;;;8.43;4.90;;;;;;;34.89;22.20;100730.09;5082187;28;20559;-85
2021/06/18 11:07:25;;;;;;;329.65;43.38;;;;;;;35.01;24.30;100728.63;5065295;28;20072;-85
2021/06/18 11:10:15;;;;;;;5.97;5.35;;;;;;;35.14;22.49;100722.47;5088164;28;20043;-83
2021/06/18 11:12:49;;;;;;;5.35;4.20;;;;;;;35.39;23.52;100721.16;5096177;28;20676;-84
2021/06/18 11:15:16;;;;;;;5.20;4.72;;;;;;;35.64;23.26;100718.91;5078495;28;20748;-83
2021/06/18 11:17:58;;;;;;;5.15;4.45;;;;;;;35.39;23.39;100729.38;5075292;28;20776;-84
2021/06/18 11:20:34;;;;;;;5.57;4.32;;;;;;;35.49;22.47;100726.38;5078463;28;20046;-84
2021/06/18 11:23:14;;;;;;;5.80;5.20;;;;;;;35.25;21.94;100719.25;5077568;28;20622;-84
2021/06/18 11:25:41;;;;;;;26.77;6.70;;;;;;;35.03;23.34;100715.56;5084245;28;20813;-84
2021/06/18 11:28:32;;;;;;;6.10;4.50;;;;;;;35.29;23.22;100720.56;5082732;28;20577;-84